Time;durP1;ratioP1;P1;durP2;ratioP2;P2;SDS_P1;SDS_P2;PMS_P1;PMS_P2;Temp;Humidity;BMP_temperature;BMP_pressure;BME280_temperature;BME280_humidity;BME280_pressure;Samples;Min_cycle;Max_cycle;Signal;HPM_P1;HPM_P2
2021/05/21 00:01:04;;;;;;;65.28;28.60;;;;;;;10.66;61.04;98559.88;5070248;28;20552;-72
2021/05/21 00:03:30;;;;;;;65.40;27.88;;;;;;;10.67;60.34;98556.00;5047807;28;674550;-72
2021/05/21 00:05:55;;;;;;;65.65;28.50;;;;;;;10.67;60.41;98558.75;5071316;28;20024;-73
2021/05/21 00:08:20;;;;;;;57.45;25.98;;;;;;;10.64;59.94;98558.50;5071244;28;20031;-73
2021/05/21 00:10:46;;;;;;;64.05;27.63;;;;;;;10.59;60.42;98556.66;5069872;28;20100;-72
2021/05/21 00:13:11;;;;;;;59.53;26.27;;;;;;;10.53;59.95;98550.44;5071174;28;20027;-72
2021/05/21 00:15:37;;;;;;;56.92;24.95;;;;;;;10.51;60.23;98551.81;5070904;28;20091;-72
2021/05/21 00:18:02;;;;;;;55.53;23.75;;;;;;;10.45;60.83;98548.34;5071001;28;20478;-72
2021/05/21 00:20:28;;;;;;;52.55;24.63;;;;;;;10.40;60.72;98546.47;5070234;28;20063;-73
2021/05/21 00:22:53;;;;;;;55.53;23.92;;;;;;;10.35;60.76;98551.16;5070756;28;20108;-71
2021/05/21 00:25:18;;;;;;;55.28;24.88;;;;;;;10.29;60.89;98550.44;5071001;28;20021;-72
2021/05/21 00:27:44;;;;;;;52.13;23.98;;;;;;;10.24;61.00;98547.75;5070147;28;20023;-72
2021/05/21 00:30:10;;;;;;;52.58;23.58;;;;;;;10.18;61.30;98547.00;5070745;28;20050;-73
2021/05/21 00:32:35;;;;;;;46.85;22.17;;;;;;;10.13;60.81;98539.63;5069259;28;20020;-73
2021/05/21 00:35:02;;;;;;;49.33;22.42;;;;;;;10.13;61.42;98536.88;5070877;28;20036;-72
2021/05/21 00:37:27;;;;;;;47.72;23.15;;;;;;;10.13;61.96;98536.88;5070696;28;20020;-73
2021/05/21 00:39:53;;;;;;;48.30;22.92;;;;;;;10.10;61.38;98537.47;5070612;28;20035;-72
2021/05/21 00:42:18;;;;;;;47.58;22.23;;;;;;;10.08;61.19;98534.19;5070779;28;20033;-72
2021/05/21 00:44:55;;;;;;;49.65;22.23;;;;;;;10.05;61.74;98534.78;5070722;28;20518;-72
2021/05/21 00:47:21;;;;;;;46.55;22.08;;;;;;;10.01;61.76;98532.91;5070458;28;20028;-72
2021/05/21 00:49:46;;;;;;;52.63;22.58;;;;;;;9.97;61.45;98538.19;5070347;28;20108;-72
2021/05/21 00:52:13;;;;;;;50.15;22.50;;;;;;;9.93;61.80;98529.69;5070409;28;20029;-72
2021/05/21 00:54:39;;;;;;;46.65;22.25;;;;;;;9.92;62.00;98528.06;5070628;28;20070;-72
2021/05/21 00:57:07;;;;;;;49.78;22.35;;;;;;;9.94;62.17;98527.78;5070388;28;20028;-72
2021/05/21 00:59:33;;;;;;;49.40;22.27;;;;;;;9.94;62.39;98536.81;5070476;28;20020;-72
2021/05/21 01:01:58;;;;;;;47.72;22.30;;;;;;;9.90;62.63;98530.28;5070366;28;20040;-73
2021/05/21 01:04:24;;;;;;;55.35;24.08;;;;;;;9.88;62.30;98523.47;5070355;28;20033;-72
2021/05/21 01:06:49;;;;;;;48.13;22.42;;;;;;;9.81;62.83;98532.00;5070784;28;20094;-73
2021/05/21 01:09:15;;;;;;;52.17;22.92;;;;;;;9.77;62.81;98530.97;5069171;28;20035;-72
2021/05/21 01:11:40;;;;;;;50.17;22.85;;;;;;;9.77;62.59;98530.97;5069557;28;20191;-72
2021/05/21 01:14:05;;;;;;;48.58;22.92;;;;;;;9.76;62.52;98521.13;5070504;28;20020;-71
2021/05/21 01:16:31;;;;;;;54.08;23.50;;;;;;;9.74;62.68;98526.88;5070358;28;20030;-72
2021/05/21 01:19:03;;;;;;;46.08;22.63;;;;;;;9.67;62.85;98529.97;5070331;28;20024;-72
2021/05/21 01:21:29;;;;;;;45.22;22.00;;;;;;;9.64;62.83;98525.06;5070131;28;20054;-71
2021/05/21 01:23:55;;;;;;;50.65;23.50;;;;;;;9.64;62.85;98513.28;5069853;28;20025;-72
2021/05/21 01:26:20;;;;;;;46.53;23.83;;;;;;;9.66;63.20;98511.91;5069775;28;20074;-72
2021/05/21 01:28:46;;;;;;;48.05;23.27;;;;;;;9.66;63.02;98505.59;5069811;28;20081;-72
2021/05/21 01:31:11;;;;;;;49.85;23.45;;;;;;;9.66;63.45;98511.91;5069658;28;20085;-72
2021/05/21 01:33:37;;;;;;;44.95;22.40;;;;;;;9.70;63.09;98503.91;5069841;28;20024;-72
2021/05/21 01:36:02;;;;;;;41.67;21.13;;;;;;;9.76;62.72;98504.69;5069418;28;20063;-72
2021/05/21 01:38:28;;;;;;;44.15;22.35;;;;;;;9.84;63.63;98493.09;5069748;28;20029;-72
2021/05/21 01:40:56;;;;;;;47.13;23.13;;;;;;;9.92;63.50;98499.88;5069770;28;20052;-72
2021/05/21 01:43:22;;;;;;;47.30;21.95;;;;;;;9.94;63.35;98506.69;5069720;28;20512;-72
2021/05/21 01:45:48;;;;;;;46.65;22.88;;;;;;;9.96;63.22;98499.00;5069615;28;20024;-72
2021/05/21 01:48:13;;;;;;;45.22;21.85;;;;;;;10.01;63.57;98497.31;5069599;28;20029;-72
2021/05/21 01:50:39;;;;;;;44.80;22.80;;;;;;;10.02;63.06;98497.00;5069478;28;20037;-73
2021/05/21 01:53:06;;;;;;;43.63;21.63;;;;;;;10.05;63.03;98496.41;5069656;28;20056;-72
2021/05/21 01:55:32;;;;;;;42.85;20.98;;;;;;;10.04;62.95;98494.78;5069735;28;20549;-72
2021/05/21 01:57:57;;;;;;;47.85;21.23;;;;;;;10.01;62.80;98503.59;5069607;28;20020;-72
2021/05/21 02:00:23;;;;;;;41.92;20.35;;;;;;;10.00;62.90;98504.69;5069546;28;20522;-72
2021/05/21 02:02:48;;;;;;;41.95;20.33;;;;;;;10.00;62.86;98498.41;5084527;28;20045;-72
2021/05/21 02:05:14;;;;;;;43.75;21.30;;;;;;;10.01;62.58;98494.56;5069529;28;20355;-72
2021/05/21 02:07:39;;;;;;;42.47;20.30;;;;;;;9.99;62.81;98503.06;5069303;28;20068;-73
2021/05/21 02:10:09;;;;;;;44.08;21.45;;;;;;;9.97;63.20;98495.13;5068207;28;20085;-72
2021/05/21 02:12:36;;;;;;;42.20;20.70;;;;;;;9.95;63.09;98500.09;5069083;28;20024;-73
2021/05/21 02:15:06;;;;;;;44.88;21.05;;;;;;;9.89;62.33;98495.78;5068272;28;20024;-72
2021/05/21 02:17:31;;;;;;;44.35;20.15;;;;;;;9.86;62.83;98501.84;5067362;28;20029;-72
2021/05/21 02:20:01;;;;;;;42.38;19.45;;;;;;;9.82;62.36;98493.38;5069078;28;20032;-73
2021/05/21 02:22:28;;;;;;;42.88;19.58;;;;;;;9.76;63.27;98489.06;5070168;28;20032;-73
2021/05/21 02:24:56;;;;;;;42.47;19.88;;;;;;;9.75;62.87;98489.38;5070429;28;20017;-73
2021/05/21 02:27:22;;;;;;;47.33;20.27;;;;;;;9.74;63.12;98485.00;5070180;28;20032;-73
2021/05/21 02:29:48;;;;;;;42.90;20.67;;;;;;;9.73;63.21;98483.38;5070355;28;20021;-71
2021/05/21 02:32:13;;;;;;;37.65;19.02;;;;;;;9.70;63.12;98479.28;5070354;28;20032;-72
2021/05/21 02:34:39;;;;;;;43.55;19.83;;;;;;;9.67;62.80;98477.09;5070517;28;20115;-72
2021/05/21 02:37:04;;;;;;;42.55;20.70;;;;;;;9.67;62.59;98479.84;5070537;28;20380;-73
2021/05/21 02:39:30;;;;;;;39.78;20.45;;;;;;;9.67;63.51;98479.84;5065699;28;20053;-73
2021/05/21 02:41:55;;;;;;;39.67;20.58;;;;;;;9.63;63.41;98470.56;5070337;28;20028;-72
2021/05/21 02:44:20;;;;;;;41.20;20.42;;;;;;;9.58;63.37;98468.72;5072743;28;20031;-72
2021/05/21 02:46:46;;;;;;;38.55;19.85;;;;;;;9.57;63.73;98474.50;5074043;28;20511;-71
2021/05/21 02:49:11;;;;;;;42.15;19.98;;;;;;;9.55;63.15;98476.72;5071772;28;20024;-72
2021/05/21 02:51:38;;;;;;;38.40;18.80;;;;;;;9.48;63.29;98480.59;5072995;28;20028;-72
2021/05/21 02:54:03;;;;;;;44.15;20.42;;;;;;;9.47;63.31;98478.13;5073260;28;20055;-72
2021/05/21 02:56:29;;;;;;;38.75;19.30;;;;;;;9.44;63.38;98482.28;5074747;28;20044;-72
2021/05/21 02:58:54;;;;;;;34.45;17.58;;;;;;;9.37;63.24;98466.16;5071518;28;20017;-72
2021/05/21 03:01:19;;;;;;;35.70;17.65;;;;;;;9.37;63.35;98473.56;5073059;28;20042;-72
2021/05/21 03:03:45;;;;;;;35.17;18.02;;;;;;;9.31;63.84;98477.47;5073089;28;20135;-72
2021/05/21 03:06:10;;;;;;;37.70;17.80;;;;;;;9.27;63.87;98476.41;5073832;28;20052;-71
2021/05/21 03:08:35;;;;;;;31.67;16.52;;;;;;;9.18;63.90;98468.78;5073738;28;20013;-71
2021/05/21 03:11:01;;;;;;;29.48;15.98;;;;;;;9.12;63.62;98475.44;5073806;28;20784;-71
2021/05/21 03:13:26;;;;;;;33.85;16.30;;;;;;;9.07;64.04;98468.06;5073647;28;20111;-71
2021/05/21 03:15:52;;;;;;;33.50;17.20;;;;;;;9.04;64.02;98467.84;5073352;28;20021;-72
2021/05/21 03:18:21;;;;;;;31.77;16.65;;;;;;;9.01;63.92;98468.41;5073793;28;20025;-71
2021/05/21 03:20:47;;;;;;;37.10;16.60;;;;;;;8.95;64.84;98470.38;5073755;28;20108;-72
2021/05/21 03:23:12;;;;;;;40.35;17.88;;;;;;;8.91;64.46;98475.59;5073321;28;20107;-71
2021/05/21 03:25:40;;;;;;;32.13;16.02;;;;;;;8.89;64.44;98475.06;5073768;28;20465;-72
2021/05/21 03:28:06;;;;;;;35.30;16.95;;;;;;;8.81;64.37;98472.91;5073425;28;20374;-72
2021/05/21 03:30:31;;;;;;;29.77;15.80;;;;;;;8.78;64.43;98463.38;5073191;28;20086;-71
2021/05/21 03:32:56;;;;;;;38.17;16.95;;;;;;;8.76;64.75;98462.03;5073197;28;20059;-71
2021/05/21 03:35:22;;;;;;;39.97;18.17;;;;;;;8.76;65.11;98462.03;5071825;28;20028;-71
2021/05/21 03:37:48;;;;;;;39.47;16.70;;;;;;;8.76;64.54;98462.84;5073071;28;20028;-72
2021/05/21 03:40:14;;;;;;;40.95;16.70;;;;;;;8.74;64.87;98465.03;5073033;28;20032;-71
2021/05/21 03:42:39;;;;;;;35.30;15.88;;;;;;;8.72;65.17;98453.56;5073104;28;20082;-72
2021/05/21 03:45:06;;;;;;;34.33;15.73;;;;;;;8.72;65.16;98459.03;5073090;28;20471;-72
2021/05/21 03:47:33;;;;;;;35.10;17.27;;;;;;;8.71;65.28;98456.59;5072954;28;20028;-72
2021/05/21 03:49:58;;;;;;;34.25;16.55;;;;;;;8.70;65.26;98453.03;5072978;28;20035;-72
2021/05/21 03:52:23;;;;;;;31.15;16.63;;;;;;;8.69;64.88;98450.59;5072958;28;20132;-72
2021/05/21 03:54:49;;;;;;;34.38;16.92;;;;;;;8.72;65.77;98461.78;5071677;28;20039;-71
2021/05/21 03:57:14;;;;;;;30.40;15.57;;;;;;;8.76;65.87;98454.63;5072936;28;20474;-72
2021/05/21 03:59:40;;;;;;;34.47;16.10;;;;;;;8.81;65.86;98450.25;5072791;28;20111;-72
2021/05/21 04:02:05;;;;;;;32.97;16.20;;;;;;;8.87;65.75;98458.09;5072583;28;20041;-72
2021/05/21 04:04:30;;;;;;;30.98;15.10;;;;;;;8.93;65.98;98447.97;5072603;28;20227;-72
2021/05/21 04:06:56;;;;;;;30.77;15.57;;;;;;;9.00;66.40;98450.38;5072736;28;20146;-72
2021/05/21 04:09:21;;;;;;;30.90;16.05;;;;;;;9.07;66.03;98450.84;5072654;28;20025;-72
2021/05/21 04:11:46;;;;;;;27.92;14.35;;;;;;;9.13;66.05;98448.88;5070973;28;20397;-72
2021/05/21 04:14:12;;;;;;;31.42;15.95;;;;;;;9.21;65.88;98446.34;5071832;28;20016;-72
2021/05/21 04:16:37;;;;;;;26.83;14.43;;;;;;;9.32;66.50;98446.25;5072262;28;20025;-73
2021/05/21 04:19:03;;;;;;;30.30;14.63;;;;;;;9.37;66.46;98447.00;5072394;28;20109;-72
2021/05/21 04:21:28;;;;;;;26.92;14.45;;;;;;;9.41;66.02;98443.69;5071942;28;20223;-72
2021/05/21 04:23:55;;;;;;;31.02;15.85;;;;;;;9.48;66.12;98447.75;5072232;28;20027;-72
2021/05/21 04:26:21;;;;;;;30.10;14.77;;;;;;;9.53;66.11;98449.59;5072124;28;20035;-71
2021/05/21 04:28:48;;;;;;;30.80;14.75;;;;;;;9.60;66.32;98451.97;5072241;28;20396;-73
2021/05/21 04:31:17;;;;;;;30.48;14.43;;;;;;;9.65;65.81;98444.56;5073559;28;20141;-71
2021/05/21 04:33:43;;;;;;;28.58;14.52;;;;;;;9.75;66.35;98440.06;5073138;28;20032;-72
2021/05/21 04:36:09;;;;;;;35.63;16.23;;;;;;;9.84;66.34;98438.31;5073597;28;20028;-72
2021/05/21 04:38:35;;;;;;;28.27;15.50;;;;;;;9.89;66.09;98438.25;5071935;28;20398;-72
2021/05/21 04:41:00;;;;;;;32.33;15.23;;;;;;;9.93;66.12;98446.72;5084549;28;20389;-72
2021/05/21 04:43:27;;;;;;;31.70;15.18;;;;;;;9.95;66.04;98444.50;5093074;28;20016;-72
2021/05/21 04:45:53;;;;;;;26.15;14.95;;;;;;;9.95;66.18;98444.50;5086688;28;20031;-72
2021/05/21 04:48:20;;;;;;;32.03;15.93;;;;;;;9.97;66.38;98443.09;5074272;28;20028;-72
2021/05/21 04:50:46;;;;;;;32.50;14.68;;;;;;;10.02;66.06;98453.16;5073010;28;20050;-72
2021/05/21 04:53:12;;;;;;;30.48;13.88;;;;;;;10.07;66.31;98449.56;5073052;28;20033;-71
2021/05/21 04:55:38;;;;;;;28.58;14.35;;;;;;;10.16;66.30;98449.72;5072814;28;20033;-72
2021/05/21 04:58:03;;;;;;;25.98;14.60;;;;;;;10.20;66.61;98451.56;5072467;28;20040;-72
2021/05/21 05:00:28;;;;;;;25.83;13.73;;;;;;;10.21;66.52;98455.13;5073314;28;20051;-72
2021/05/21 05:02:54;;;;;;;24.60;14.05;;;;;;;10.23;66.08;98463.88;5053033;28;20048;-72
2021/05/21 05:05:19;;;;;;;29.25;14.55;;;;;;;10.23;65.92;98463.88;5055217;28;20033;-72
2021/05/21 05:07:45;;;;;;;30.17;13.80;;;;;;;10.28;66.62;98461.06;5074693;28;20021;-72
2021/05/21 05:10:11;;;;;;;26.67;15.02;;;;;;;10.32;65.93;98456.63;5084534;28;20485;-72
2021/05/21 05:12:36;;;;;;;26.75;14.55;;;;;;;10.40;66.54;98455.19;5073080;28;20056;-71
2021/05/21 05:15:02;;;;;;;28.92;14.38;;;;;;;10.47;65.84;98452.91;5074947;28;20039;-72
2021/05/21 05:17:27;;;;;;;32.15;14.75;;;;;;;10.56;66.23;98453.88;5084713;28;20028;-71
2021/05/21 05:19:53;;;;;;;29.83;14.73;;;;;;;10.67;66.03;98445.47;5071774;28;20036;-71
2021/05/21 05:22:18;;;;;;;37.13;17.50;;;;;;;10.67;65.92;98443.56;5053111;28;20483;-72
2021/05/21 05:24:43;;;;;;;28.00;15.77;;;;;;;10.73;66.35;98444.28;5073713;28;20025;-71
2021/05/21 05:27:09;;;;;;;27.55;14.45;;;;;;;10.78;66.06;98440.66;5073790;28;20028;-72
2021/05/21 05:29:35;;;;;;;26.65;14.15;;;;;;;10.85;66.46;98438.34;5065161;28;20025;-72
2021/05/21 05:32:03;;;;;;;24.83;13.32;;;;;;;10.90;66.11;98437.47;5082770;28;20028;-72
2021/05/21 05:34:28;;;;;;;26.27;13.55;;;;;;;10.95;65.78;98434.63;5080342;28;20482;-72
2021/05/21 05:36:57;;;;;;;22.75;12.50;;;;;;;11.01;65.79;98441.66;5092313;28;20039;-72
2021/05/21 05:39:22;;;;;;;22.45;13.05;;;;;;;11.06;65.76;98435.28;5058149;28;20051;-72
2021/05/21 05:41:49;;;;;;;23.58;11.45;;;;;;;11.14;66.41;98435.41;5052287;28;20033;-73
2021/05/21 05:44:18;;;;;;;19.65;11.02;;;;;;;11.22;66.06;98428.41;5053351;28;20414;-73
2021/05/21 05:46:43;;;;;;;21.58;12.25;;;;;;;11.30;66.16;98426.91;5056592;28;20027;-73
2021/05/21 05:49:09;;;;;;;25.30;12.88;;;;;;;11.39;65.80;98419.59;5076476;28;20036;-73
2021/05/21 05:51:34;;;;;;;20.73;11.55;;;;;;;11.48;65.21;98414.22;5072322;28;20425;-73
2021/05/21 05:54:00;;;;;;;27.52;12.75;;;;;;;11.60;65.17;98409.06;5072192;28;20074;-73
2021/05/21 05:56:25;;;;;;;19.45;12.02;;;;;;;11.74;65.58;98417.28;5072272;28;20029;-73
2021/05/21 05:58:50;;;;;;;25.10;13.05;;;;;;;11.83;65.08;98424.81;5072056;28;20032;-73
2021/05/21 06:01:16;;;;;;;24.35;13.25;;;;;;;11.95;64.54;98418.81;5069918;28;20043;-72
2021/05/21 06:03:41;;;;;;;27.40;12.30;;;;;;;12.08;65.17;98417.19;5081053;28;20123;-72
2021/05/21 06:06:06;;;;;;;18.70;11.02;;;;;;;12.21;65.19;98417.19;5066213;28;20035;-73
2021/05/21 06:08:32;;;;;;;21.98;12.10;;;;;;;12.29;64.90;98412.06;5062810;28;20042;-73
2021/05/21 06:10:57;;;;;;;16.80;10.45;;;;;;;12.39;64.74;98400.84;5063485;28;20055;-73
2021/05/21 06:13:25;;;;;;;18.77;9.60;;;;;;;12.46;64.12;98403.97;5061741;28;20463;-73
2021/05/21 06:15:52;;;;;;;21.25;9.95;;;;;;;12.58;63.78;98408.13;5061787;28;20020;-73
2021/05/21 06:18:18;;;;;;;20.85;10.93;;;;;;;12.70;64.18;98400.13;5062901;28;20039;-73
2021/05/21 06:20:44;;;;;;;22.02;10.07;;;;;;;12.77;63.44;98399.69;5073167;28;20020;-73
2021/05/21 06:23:09;;;;;;;23.63;9.57;;;;;;;12.76;62.52;98390.63;5076178;28;20032;-74
2021/05/21 06:28:19;;;;;;;18.55;8.68;;;;;;;12.66;61.95;98393.63;5076322;28;20108;-72
2021/05/21 06:30:44;;;;;;;24.10;11.05;;;;;;;12.67;61.88;98395.25;5065311;28;20110;-72
2021/05/21 06:33:10;;;;;;;16.80;9.15;;;;;;;12.63;61.66;98386.00;5076262;28;20466;-73
2021/05/21 06:35:35;;;;;;;18.17;8.20;;;;;;;12.63;61.56;98392.28;5076147;28;20031;-73
2021/05/21 06:38:01;;;;;;;16.25;7.55;;;;;;;12.65;61.64;98387.31;5061105;28;20033;-73
2021/05/21 06:40:26;;;;;;;12.63;7.53;;;;;;;12.67;61.33;98381.50;5065283;28;20426;-73
2021/05/21 06:42:52;;;;;;;10.50;6.28;;;;;;;12.71;60.73;98377.00;5072638;28;20032;-72
2021/05/21 06:45:17;;;;;;;17.55;7.28;;;;;;;12.74;60.97;98372.78;5064833;28;20087;-72
2021/05/21 06:47:43;;;;;;;14.82;7.72;;;;;;;12.80;61.10;98369.63;5064662;28;20032;-71
2021/05/21 06:50:09;;;;;;;16.17;7.90;;;;;;;12.87;60.74;98368.34;5063816;28;20489;-72
2021/05/21 06:52:34;;;;;;;17.48;9.15;;;;;;;12.97;61.50;98370.06;5065214;28;20055;-72
2021/05/21 06:55:00;;;;;;;12.20;7.70;;;;;;;13.04;60.87;98371.22;5065940;28;20489;-72
2021/05/21 06:57:25;;;;;;;13.30;7.03;;;;;;;13.10;60.35;98355.38;5069240;28;20032;-73
2021/05/21 06:59:51;;;;;;;11.63;7.93;;;;;;;13.12;60.27;98353.13;5064473;28;20178;-73
2021/05/21 07:02:16;;;;;;;11.55;7.15;;;;;;;13.18;60.28;98353.81;5066295;28;20571;-72
2021/05/21 07:04:42;;;;;;;15.57;7.18;;;;;;;13.24;60.19;98347.03;5065810;28;20051;-72
2021/05/21 07:07:08;;;;;;;12.40;7.07;;;;;;;13.27;59.43;98354.66;5066224;28;20493;-70
2021/05/21 07:09:33;;;;;;;15.07;6.45;;;;;;;13.28;59.52;98348.00;5065498;28;20025;-72
2021/05/21 07:11:58;;;;;;;10.40;6.13;;;;;;;13.33;59.30;98347.06;5065209;28;20500;-72
2021/05/21 07:14:25;;;;;;;10.02;5.97;;;;;;;13.36;58.82;98349.19;5065777;28;20036;-72
2021/05/21 07:16:50;;;;;;;9.93;5.88;;;;;;;13.42;58.96;98349.88;5068595;28;20037;-72
2021/05/21 07:19:18;;;;;;;11.65;6.43;;;;;;;13.49;58.73;98351.03;5068564;28;21425;-73
2021/05/21 07:21:44;;;;;;;13.38;5.85;;;;;;;13.55;58.66;98344.25;5064893;28;20134;-72
2021/05/21 07:24:09;;;;;;;10.02;5.65;;;;;;;13.63;58.46;98339.94;5063617;28;20116;-73
2021/05/21 07:26:35;;;;;;;11.50;5.90;;;;;;;13.69;58.08;98346.09;5065337;28;20453;-72
2021/05/21 07:29:03;;;;;;;10.50;4.95;;;;;;;13.78;58.56;98344.19;5066057;28;20028;-74
2021/05/21 07:31:28;;;;;;;7.15;3.40;;;;;;;13.87;57.17;98338.69;5065455;28;20112;-73
2021/05/21 07:33:58;;;;;;;5.30;3.42;;;;;;;13.93;56.30;98336.56;5064736;28;20127;-73
2021/05/21 07:36:25;;;;;;;7.20;3.00;;;;;;;13.96;55.90;98331.25;5066555;28;20035;-72
2021/05/21 07:38:51;;;;;;;5.15;2.80;;;;;;;14.02;55.65;98331.09;5065443;28;20047;-74
2021/05/21 07:41:18;;;;;;;6.85;2.90;;;;;;;14.10;55.62;98335.78;5063813;28;20060;-72
2021/05/21 07:43:44;;;;;;;4.20;2.83;;;;;;;14.15;54.93;98330.13;5064448;28;20028;-74
2021/05/21 07:46:10;;;;;;;5.82;2.92;;;;;;;14.19;54.87;98324.78;5064903;28;20086;-71
2021/05/21 07:48:35;;;;;;;7.07;3.40;;;;;;;14.23;55.06;98331.28;5059330;28;20028;-72
2021/05/21 07:51:02;;;;;;;7.82;3.47;;;;;;;14.32;55.23;98323.81;5065062;28;20040;-71
2021/05/21 07:53:31;;;;;;;9.32;3.80;;;;;;;14.41;55.42;98324.63;5058262;28;20098;-72
2021/05/21 07:55:56;;;;;;;6.50;3.23;;;;;;;14.51;54.94;98326.22;5063714;28;20032;-73
2021/05/21 07:58:22;;;;;;;3.70;2.63;;;;;;;14.60;54.34;98320.72;5060892;28;20085;-74
2021/05/21 08:00:47;;;;;;;3.97;3.08;;;;;;;14.62;53.50;98320.38;5058370;28;20036;-74
2021/05/21 08:03:15;;;;;;;4.65;2.80;;;;;;;14.63;52.98;98319.25;5060220;28;20053;-73
2021/05/21 08:05:40;;;;;;;3.13;2.53;;;;;;;14.64;52.79;98307.06;5061696;28;20532;-73
2021/05/21 08:08:06;;;;;;;5.00;2.90;;;;;;;14.67;52.01;98317.47;5060384;28;20025;-74
2021/05/21 08:10:32;;;;;;;5.18;3.35;;;;;;;14.67;51.77;98301.69;5063614;28;20067;-72
2021/05/21 08:13:02;;;;;;;10.65;6.38;;;;;;;14.70;51.99;98314.06;5060056;28;20493;-73
2021/05/21 08:15:27;;;;;;;5.30;3.40;;;;;;;14.73;52.61;98302.38;5061850;28;20099;-74
2021/05/21 08:17:53;;;;;;;8.35;3.60;;;;;;;14.78;52.32;98299.44;5064589;28;20131;-74
2021/05/21 08:20:18;;;;;;;5.82;3.33;;;;;;;14.82;52.94;98292.13;5062859;28;20056;-74
2021/05/21 08:22:43;;;;;;;7.70;3.40;;;;;;;14.91;52.95;98299.56;5063075;28;20029;-74
2021/05/21 08:25:10;;;;;;;6.35;3.25;;;;;;;14.95;52.34;98304.13;5062219;28;20135;-74
2021/05/21 08:27:35;;;;;;;6.93;3.80;;;;;;;15.02;53.04;98298.06;5059874;28;20115;-73
2021/05/21 08:30:02;;;;;;;5.85;3.63;;;;;;;15.07;52.53;98292.38;5063294;28;20521;-73
2021/05/21 08:32:27;;;;;;;9.23;4.28;;;;;;;15.15;52.92;98290.72;5061475;28;20077;-75
2021/05/21 08:34:53;;;;;;;7.55;4.07;;;;;;;15.21;53.43;98286.63;5060412;28;20913;-74
2021/05/21 08:37:19;;;;;;;7.80;3.90;;;;;;;15.29;53.07;98285.78;5063630;28;20032;-74
2021/05/21 08:39:44;;;;;;;8.85;4.15;;;;;;;15.35;53.12;98271.78;5063190;28;20101;-74
2021/05/21 08:42:11;;;;;;;6.43;3.85;;;;;;;15.39;53.15;98268.03;5061814;28;20040;-74
2021/05/21 08:44:38;;;;;;;7.35;3.90;;;;;;;15.51;53.14;98280.31;5059806;28;20032;-76
2021/05/21 08:47:03;;;;;;;6.65;4.28;;;;;;;15.59;52.25;98273.94;5062005;28;20033;-75
2021/05/21 08:49:28;;;;;;;5.90;3.65;;;;;;;15.63;52.38;98275.69;5063956;28;20406;-75
2021/05/21 08:51:55;;;;;;;7.20;3.67;;;;;;;15.70;52.63;98277.91;5061613;28;20044;-74
2021/05/21 08:54:20;;;;;;;10.07;3.35;;;;;;;15.81;52.89;98267.28;5062150;28;20041;-69
2021/05/21 08:56:47;;;;;;;3.45;2.83;;;;;;;15.92;52.60;98259.44;5062500;28;20125;-71
2021/05/21 08:59:12;;;;;;;3.95;2.60;;;;;;;16.02;51.87;98259.03;5063294;28;20056;-70
2021/05/21 09:01:56;;;;;;;5.78;2.88;;;;;;;16.10;51.82;98256.56;5062086;28;20117;-71
2021/05/21 09:04:22;;;;;;;5.93;3.10;;;;;;;16.23;51.05;98247.13;5060767;28;20040;-73
2021/05/21 09:06:47;;;;;;;9.15;2.72;;;;;;;16.26;49.44;98238.16;5064365;28;20501;-71
2021/05/21 09:09:13;;;;;;;3.22;2.10;;;;;;;16.23;49.27;98241.59;5063254;28;20675;-72
2021/05/21 09:11:41;;;;;;;4.32;2.50;;;;;;;16.24;49.29;98240.47;5061656;28;20032;-72
2021/05/21 09:14:21;;;;;;;5.15;2.90;;;;;;;16.27;49.65;98234.25;5059950;28;20094;-73
2021/05/21 09:16:47;;;;;;;;;;;;;;;16.34;49.59;98231.75;5062918;28;20043;-73
2021/05/21 09:19:20;;;;;;;5.03;2.50;;;;;;;16.41;49.99;98220.09;5063361;28;19920;-72
2021/05/21 09:22:06;;;;;;;11.95;3.10;;;;;;;16.54;50.10;98212.63;5061754;28;20025;-71
2021/05/21 09:24:39;;;;;;;4.57;2.55;;;;;;;16.62;49.39;98225.59;5062679;28;20036;-72
2021/05/21 09:27:06;;;;;;;6.05;2.85;;;;;;;16.68;49.08;98220.66;5061793;28;20490;-71
2021/05/21 09:29:46;;;;;;;10.13;5.50;;;;;;;16.77;48.50;98207.50;5062487;28;20081;-71
2021/05/21 09:32:17;;;;;;;3.17;1.80;;;;;;;16.81;47.79;98211.19;5060169;28;20024;-71
2021/05/21 09:34:47;;;;;;;4.30;1.83;;;;;;;16.83;46.98;98205.34;5059887;28;20024;-71
2021/05/21 09:37:21;;;;;;;3.60;1.83;;;;;;;16.85;47.38;98203.03;5063287;28;20085;-71
2021/05/21 09:40:20;;;;;;;3.58;1.63;;;;;;;16.91;46.63;98207.16;5063386;28;20152;-71
2021/05/21 09:43:06;;;;;;;3.38;1.88;;;;;;;16.95;44.47;98199.78;5004275;28;20090;-71
2021/05/21 09:45:35;;;;;;;3.55;1.40;;;;;;;16.97;43.69;98196.72;5062201;28;20108;-75
2021/05/21 09:48:11;;;;;;;4.93;1.60;;;;;;;16.99;43.88;98205.50;5062618;28;20498;-73
2021/05/21 09:50:36;;;;;;;4.18;1.60;;;;;;;16.99;43.84;98199.94;5061154;28;20032;-72
2021/05/21 09:53:24;;;;;;;3.60;1.70;;;;;;;17.00;44.22;98184.13;5063580;28;20032;-72
2021/05/21 09:55:54;;;;;;;3.10;1.90;;;;;;;17.00;43.15;98184.94;5067618;28;20116;-72
2021/05/21 09:58:40;;;;;;;3.22;1.70;;;;;;;17.06;43.50;98171.66;5068324;28;20028;-72
2021/05/21 10:01:10;;;;;;;2.47;1.83;;;;;;;17.09;42.11;98168.19;5064744;28;20055;-73
2021/05/21 10:03:37;;;;;;;3.08;1.48;;;;;;;17.11;42.37;98160.34;5063842;28;20044;-72
2021/05/21 10:06:03;;;;;;;3.58;1.60;;;;;;;17.15;43.22;98164.03;5064794;28;20117;-72
2021/05/21 10:08:32;;;;;;;4.00;2.10;;;;;;;17.20;43.51;98160.22;5067424;28;20093;-72
2021/05/21 10:10:59;;;;;;;4.20;2.10;;;;;;;17.24;43.42;98155.59;5066893;28;20040;-72
2021/05/21 10:13:24;;;;;;;4.55;1.70;;;;;;;17.31;43.61;98149.50;5065328;28;20036;-71
2021/05/21 10:15:50;;;;;;;3.67;1.50;;;;;;;17.38;43.25;98161.59;5064536;28;20058;-74
2021/05/21 10:18:16;;;;;;;2.38;1.50;;;;;;;17.43;43.04;98152.22;5066775;28;20040;-72
2021/05/21 10:20:46;;;;;;;2.13;1.33;;;;;;;17.48;42.09;98145.66;5065544;28;20040;-74
2021/05/21 10:23:19;;;;;;;3.53;1.90;;;;;;;17.49;42.04;98136.97;5065426;28;20028;-72
2021/05/21 10:25:48;;;;;;;5.70;2.05;;;;;;;17.54;42.75;98131.19;5065104;28;20103;-72
2021/05/21 10:28:14;;;;;;;7.33;2.10;;;;;;;17.64;43.41;98129.88;5065135;28;20040;-73
2021/05/21 10:30:41;;;;;;;2.95;1.55;;;;;;;17.75;42.94;98129.38;5066593;28;20771;-72
2021/05/21 10:33:13;;;;;;;2.88;1.80;;;;;;;17.80;41.86;98118.84;5064651;28;20577;-73
2021/05/21 10:35:39;;;;;;;2.10;1.70;;;;;;;17.86;42.58;98119.41;5064260;28;20029;-72
2021/05/21 10:38:25;;;;;;;3.25;1.65;;;;;;;17.94;42.41;98125.94;5065915;28;20028;-72
2021/05/21 10:41:16;;;;;;;3.15;1.45;;;;;;;17.97;41.59;98119.69;5065983;28;20119;-74
2021/05/21 10:43:49;;;;;;;3.95;1.60;;;;;;;18.03;41.49;98120.25;5064897;28;20032;-74
2021/05/21 10:46:20;;;;;;;3.00;1.90;;;;;;;18.05;41.09;98117.94;5064032;28;20378;-74
2021/05/21 10:49:24;;;;;;;6.32;1.65;;;;;;;18.12;40.55;98118.16;5066111;28;20713;-74
2021/05/21 10:51:53;;;;;;;4.00;1.30;;;;;;;18.18;40.26;98105.63;5053699;28;20076;-72
2021/05/21 10:54:28;;;;;;;2.08;1.50;;;;;;;18.24;39.86;98103.38;5064696;28;20075;-74
2021/05/21 10:56:57;;;;;;;2.65;1.50;;;;;;;18.31;39.74;98103.56;5065806;28;20083;-73
2021/05/21 10:59:41;;;;;;;3.30;1.45;;;;;;;18.34;40.18;98093.75;5065298;28;20094;-72
2021/05/21 11:02:09;;;;;;;6.07;1.60;;;;;;;18.38;39.93;98092.66;5066095;28;20052;-73
2021/05/21 11:04:34;;;;;;;4.10;1.50;;;;;;;18.47;39.99;98088.91;5063145;28;20064;-71
2021/05/21 11:07:03;;;;;;;3.33;1.70;;;;;;;18.52;40.06;98081.09;5065732;28;20020;-71
2021/05/21 11:09:41;;;;;;;3.28;1.50;;;;;;;18.59;40.00;98078.50;5064850;28;20110;-74
2021/05/21 11:12:14;;;;;;;3.25;1.80;;;;;;;18.65;40.63;98072.69;5063589;28;20073;-74
2021/05/21 11:14:48;;;;;;;1.95;1.48;;;;;;;18.75;40.32;98080.44;5061828;28;20145;-74
2021/05/21 11:17:18;;;;;;;4.30;1.58;;;;;;;18.80;39.88;98074.63;5064110;28;20051;-74
2021/05/21 11:19:45;;;;;;;;;;;;;;;18.86;39.33;98078.75;5065516;28;20058;-73
2021/05/21 11:22:24;;;;;;;2.80;1.30;;;;;;;18.92;39.40;98081.25;5063739;28;20327;-75
2021/05/21 11:24:58;;;;;;;3.23;1.50;;;;;;;19.00;39.46;98066.38;5065361;28;20165;-72
2021/05/21 11:27:25;;;;;;;6.07;1.42;;;;;;;19.13;39.62;98072.63;5066351;28;21458;-72
2021/05/21 11:29:52;;;;;;;1.83;1.20;;;;;;;19.18;39.29;98066.78;5065905;28;20058;-73